Terminal Aerodrome Forecast
Issued by NWS

Home | Current Version | Previous Version | Text Only | Print | Product List | Glossary On
Versions: 1 2 3 4 5 6 7 8 9 10 11 12 13 14
000
FTUS45 KBOU 211805 AAA
TAFAPA
TAF AMD
KAPA 211805Z 2118/2218 03010KT P6SM FEW090 SCT150
     FM220200 01006KT P6SM SCT090 SCT150 BKN200
     FM220800 32006KT P6SM SCT020 SCT120
     FM221200 01006KT P6SM SCT008 BKN020
     FM221500 14008KT P6SM FEW020 SCT120=

USA.gov is the U.S. government's official web portal to all federal, state and local government web resources and services.